sensor_id;sensor_type;location;lat;lon;timestamp;temperature;humidity
8824;DHT22;4448;50.904;4.694;2024-03-02T00:00:37;9.30;99.90
8824;DHT22;4448;50.904;4.694;2024-03-02T00:03:04;9.30;99.90
8824;DHT22;4448;50.904;4.694;2024-03-02T00:05:30;9.30;99.90
8824;DHT22;4448;50.904;4.694;2024-03-02T00:07:57;9.30;99.90
8824;DHT22;4448;50.904;4.694;2024-03-02T00:10:27;9.20;99.90
8824;DHT22;4448;50.904;4.694;2024-03-02T00:12:57;9.20;99.90
8824;DHT22;4448;50.904;4.694;2024-03-02T00:18:04;9.20;99.90
8824;DHT22;4448;50.904;4.694;2024-03-02T00:20:31;9.20;99.90
8824;DHT22;4448;50.904;4.694;2024-03-02T00:23:04;9.20;99.90
8824;DHT22;4448;50.904;4.694;2024-03-02T00:25:53;9.20;99.90
8824;DHT22;4448;50.904;4.694;2024-03-02T00:28:25;9.20;99.90
8824;DHT22;4448;50.904;4.694;2024-03-02T00:31:02;9.10;99.90
8824;DHT22;4448;50.904;4.694;2024-03-02T00:33:31;9.20;99.90
8824;DHT22;4448;50.904;4.694;2024-03-02T00:35:58;9.10;99.90
8824;DHT22;4448;50.904;4.694;2024-03-02T00:38:25;9.10;99.90
8824;DHT22;4448;50.904;4.694;2024-03-02T00:40:51;9.10;99.90
8824;DHT22;4448;50.904;4.694;2024-03-02T00:45:49;9.10;99.90
8824;DHT22;4448;50.904;4.694;2024-03-02T00:48:16;9.10;99.90
8824;DHT22;4448;50.904;4.694;2024-03-02T00:50:42;9.10;99.90
8824;DHT22;4448;50.904;4.694;2024-03-02T00:53:11;9.10;99.90
8824;DHT22;4448;50.904;4.694;2024-03-02T00:55:37;9.00;99.90
8824;DHT22;4448;50.904;4.694;2024-03-02T00:58:03;9.00;99.90
8824;DHT22;4448;50.904;4.694;2024-03-02T01:00:29;9.00;99.90
8824;DHT22;4448;50.904;4.694;2024-03-02T01:02:55;9.00;99.90
8824;DHT22;4448;50.904;4.694;2024-03-02T01:05:21;9.00;99.90
8824;DHT22;4448;50.904;4.694;2024-03-02T01:07:46;9.00;99.90
8824;DHT22;4448;50.904;4.694;2024-03-02T01:10:12;9.00;99.90
8824;DHT22;4448;50.904;4.694;2024-03-02T01:12:38;8.90;99.90
8824;DHT22;4448;50.904;4.694;2024-03-02T01:15:05;8.90;99.90
8824;DHT22;4448;50.904;4.694;2024-03-02T01:17:33;8.90;99.90
8824;DHT22;4448;50.904;4.694;2024-03-02T01:19:59;8.90;99.90
8824;DHT22;4448;50.904;4.694;2024-03-02T01:22:25;8.90;99.90
8824;DHT22;4448;50.904;4.694;2024-03-02T01:24:51;8.90;99.90
8824;DHT22;4448;50.904;4.694;2024-03-02T02:18:30;8.10;99.90
8824;DHT22;4448;50.904;4.694;2024-03-02T02:20:56;8.80;99.90
8824;DHT22;4448;50.904;4.694;2024-03-02T02:23:22;8.80;99.90
8824;DHT22;4448;50.904;4.694;2024-03-02T02:25:48;8.70;99.90
8824;DHT22;4448;50.904;4.694;2024-03-02T02:28:13;8.70;99.90
8824;DHT22;4448;50.904;4.694;2024-03-02T02:30:39;8.70;99.90
8824;DHT22;4448;50.904;4.694;2024-03-02T02:33:05;8.70;99.90
8824;DHT22;4448;50.904;4.694;2024-03-02T02:35:31;8.70;99.90
8824;DHT22;4448;50.904;4.694;2024-03-02T02:37:57;8.70;99.90
8824;DHT22;4448;50.904;4.694;2024-03-02T02:40:24;8.60;99.90
8824;DHT22;4448;50.904;4.694;2024-03-02T02:42:50;8.60;99.90
8824;DHT22;4448;50.904;4.694;2024-03-02T02:45:17;8.60;99.90
8824;DHT22;4448;50.904;4.694;2024-03-02T02:47:44;8.60;99.90
8824;DHT22;4448;50.904;4.694;2024-03-02T02:50:11;8.60;99.90
8824;DHT22;4448;50.904;4.694;2024-03-02T02:52:39;8.60;99.90
8824;DHT22;4448;50.904;4.694;2024-03-02T02:55:07;8.60;99.90
8824;DHT22;4448;50.904;4.694;2024-03-02T02:57:34;8.60;99.90
8824;DHT22;4448;50.904;4.694;2024-03-02T03:00:08;8.60;99.90
8824;DHT22;4448;50.904;4.694;2024-03-02T03:02:44;8.50;99.90
8824;DHT22;4448;50.904;4.694;2024-03-02T03:05:11;8.50;99.90
8824;DHT22;4448;50.904;4.694;2024-03-02T03:07:37;8.50;99.90
8824;DHT22;4448;50.904;4.694;2024-03-02T03:10:05;8.50;99.90
8824;DHT22;4448;50.904;4.694;2024-03-02T03:12:32;8.50;99.90
8824;DHT22;4448;50.904;4.694;2024-03-02T03:14:58;8.40;99.90
8824;DHT22;4448;50.904;4.694;2024-03-02T03:17:24;8.40;99.90
8824;DHT22;4448;50.904;4.694;2024-03-02T03:19:50;8.40;99.90
8824;DHT22;4448;50.904;4.694;2024-03-02T03:22:16;8.30;99.90
8824;DHT22;4448;50.904;4.694;2024-03-02T03:24:42;8.30;99.90
8824;DHT22;4448;50.904;4.694;2024-03-02T03:27:09;8.30;99.90
8824;DHT22;4448;50.904;4.694;2024-03-02T03:29:36;8.30;99.90
8824;DHT22;4448;50.904;4.694;2024-03-02T03:32:02;8.30;99.90
8824;DHT22;4448;50.904;4.694;2024-03-02T03:34:28;8.30;99.90
8824;DHT22;4448;50.904;4.694;2024-03-02T03:36:55;8.20;99.90
8824;DHT22;4448;50.904;4.694;2024-03-02T03:39:20;8.30;99.90
8824;DHT22;4448;50.904;4.694;2024-03-02T03:41:46;8.20;99.90
8824;DHT22;4448;50.904;4.694;2024-03-02T03:44:12;8.20;99.90
8824;DHT22;4448;50.904;4.694;2024-03-02T03:46:38;8.20;99.90
8824;DHT22;4448;50.904;4.694;2024-03-02T03:49:03;8.20;99.90
8824;DHT22;4448;50.904;4.694;2024-03-02T03:51:30;8.20;99.90
8824;DHT22;4448;50.904;4.694;2024-03-02T03:53:56;8.20;99.90
8824;DHT22;4448;50.904;4.694;2024-03-02T03:56:22;8.10;99.90
8824;DHT22;4448;50.904;4.694;2024-03-02T03:58:48;8.10;99.90
8824;DHT22;4448;50.904;4.694;2024-03-02T04:01:13;8.10;99.90
8824;DHT22;4448;50.904;4.694;2024-03-02T04:03:39;8.10;99.90
8824;DHT22;4448;50.904;4.694;2024-03-02T04:06:05;8.10;99.90
8824;DHT22;4448;50.904;4.694;2024-03-02T04:08:31;8.10;99.90
8824;DHT22;4448;50.904;4.694;2024-03-02T04:10:56;8.10;99.90
8824;DHT22;4448;50.904;4.694;2024-03-02T04:13:22;8.10;99.90
8824;DHT22;4448;50.904;4.694;2024-03-02T04:15:48;8.10;99.90
8824;DHT22;4448;50.904;4.694;2024-03-02T04:18:14;8.00;99.90
8824;DHT22;4448;50.904;4.694;2024-03-02T04:20:39;8.00;99.90
8824;DHT22;4448;50.904;4.694;2024-03-02T04:23:05;8.00;99.90
8824;DHT22;4448;50.904;4.694;2024-03-02T04:25:31;8.00;99.90
8824;DHT22;4448;50.904;4.694;2024-03-02T04:27:57;8.00;99.90
8824;DHT22;4448;50.904;4.694;2024-03-02T04:30:23;8.00;99.90
8824;DHT22;4448;50.904;4.694;2024-03-02T04:32:50;8.00;99.90
8824;DHT22;4448;50.904;4.694;2024-03-02T04:35:16;8.00;99.90
8824;DHT22;4448;50.904;4.694;2024-03-02T04:37:42;8.00;99.90
8824;DHT22;4448;50.904;4.694;2024-03-02T04:40:08;7.90;99.90
8824;DHT22;4448;50.904;4.694;2024-03-02T04:42:35;8.00;99.90
8824;DHT22;4448;50.904;4.694;2024-03-02T04:45:01;7.90;99.90
8824;DHT22;4448;50.904;4.694;2024-03-02T04:47:27;7.90;99.90
8824;DHT22;4448;50.904;4.694;2024-03-02T04:49:52;7.90;99.90
8824;DHT22;4448;50.904;4.694;2024-03-02T04:52:18;7.90;99.90
8824;DHT22;4448;50.904;4.694;2024-03-02T04:54:44;7.90;99.90
8824;DHT22;4448;50.904;4.694;2024-03-02T04:57:28;7.90;99.90
8824;DHT22;4448;50.904;4.694;2024-03-02T04:59:54;7.90;99.90
8824;DHT22;4448;50.904;4.694;2024-03-02T05:02:20;7.90;99.90
8824;DHT22;4448;50.904;4.694;2024-03-02T05:04:46;7.90;99.90
8824;DHT22;4448;50.904;4.694;2024-03-02T05:07:13;7.90;99.90
8824;DHT22;4448;50.904;4.694;2024-03-02T05:09:39;7.90;99.90
8824;DHT22;4448;50.904;4.694;2024-03-02T05:12:05;7.80;99.90
8824;DHT22;4448;50.904;4.694;2024-03-02T05:14:49;7.80;99.90
8824;DHT22;4448;50.904;4.694;2024-03-02T05:17:15;7.80;99.90
8824;DHT22;4448;50.904;4.694;2024-03-02T05:19:41;7.80;99.90
8824;DHT22;4448;50.904;4.694;2024-03-02T05:22:07;7.80;99.90
8824;DHT22;4448;50.904;4.694;2024-03-02T05:24:32;7.80;99.90
8824;DHT22;4448;50.904;4.694;2024-03-02T05:26:58;7.80;99.90
8824;DHT22;4448;50.904;4.694;2024-03-02T05:29:24;7.80;99.90
8824;DHT22;4448;50.904;4.694;2024-03-02T05:31:50;7.80;99.90
8824;DHT22;4448;50.904;4.694;2024-03-02T05:34:16;7.80;99.90
8824;DHT22;4448;50.904;4.694;2024-03-02T05:36:41;7.80;99.90
8824;DHT22;4448;50.904;4.694;2024-03-02T05:39:07;7.80;99.90
8824;DHT22;4448;50.904;4.694;2024-03-02T05:41:35;7.80;99.90
8824;DHT22;4448;50.904;4.694;2024-03-02T05:44:01;7.80;99.90
8824;DHT22;4448;50.904;4.694;2024-03-02T05:46:27;7.80;99.90
8824;DHT22;4448;50.904;4.694;2024-03-02T05:48:53;7.70;99.90
8824;DHT22;4448;50.904;4.694;2024-03-02T05:51:19;7.80;99.90
8824;DHT22;4448;50.904;4.694;2024-03-02T05:53:44;7.80;99.90
8824;DHT22;4448;50.904;4.694;2024-03-02T05:56:10;7.70;99.90
8824;DHT22;4448;50.904;4.694;2024-03-02T05:58:37;7.70;99.90
8824;DHT22;4448;50.904;4.694;2024-03-02T06:01:26;7.70;99.90
8824;DHT22;4448;50.904;4.694;2024-03-02T06:03:57;7.70;99.90
8824;DHT22;4448;50.904;4.694;2024-03-02T06:06:24;7.70;99.90
8824;DHT22;4448;50.904;4.694;2024-03-02T06:08:50;7.70;99.90
8824;DHT22;4448;50.904;4.694;2024-03-02T06:11:16;7.80;99.90
8824;DHT22;4448;50.904;4.694;2024-03-02T06:13:42;7.70;99.90
8824;DHT22;4448;50.904;4.694;2024-03-02T06:16:08;7.70;99.90
8824;DHT22;4448;50.904;4.694;2024-03-02T06:18:34;7.70;99.90
8824;DHT22;4448;50.904;4.694;2024-03-02T06:21:00;7.70;99.90
8824;DHT22;4448;50.904;4.694;2024-03-02T06:23:28;7.70;99.90
8824;DHT22;4448;50.904;4.694;2024-03-02T06:25:54;7.70;99.90
8824;DHT22;4448;50.904;4.694;2024-03-02T06:28:20;7.70;99.90
8824;DHT22;4448;50.904;4.694;2024-03-02T06:30:46;7.70;99.90
8824;DHT22;4448;50.904;4.694;2024-03-02T06:33:12;7.70;99.90
8824;DHT22;4448;50.904;4.694;2024-03-02T06:35:38;7.70;99.90
8824;DHT22;4448;50.904;4.694;2024-03-02T06:38:04;7.70;99.90
8824;DHT22;4448;50.904;4.694;2024-03-02T06:40:30;7.70;99.90
8824;DHT22;4448;50.904;4.694;2024-03-02T06:42:56;7.60;99.90
8824;DHT22;4448;50.904;4.694;2024-03-02T06:45:21;7.70;99.90
8824;DHT22;4448;50.904;4.694;2024-03-02T06:47:47;7.70;99.90
8824;DHT22;4448;50.904;4.694;2024-03-02T06:50:13;7.70;99.90
8824;DHT22;4448;50.904;4.694;2024-03-02T06:52:39;7.70;99.90
8824;DHT22;4448;50.904;4.694;2024-03-02T06:55:05;7.70;99.90
8824;DHT22;4448;50.904;4.694;2024-03-02T06:57:31;7.60;99.90
8824;DHT22;4448;50.904;4.694;2024-03-02T06:59:56;7.60;99.90
8824;DHT22;4448;50.904;4.694;2024-03-02T07:02:27;7.60;99.90
8824;DHT22;4448;50.904;4.694;2024-03-02T07:04:53;7.70;99.90
8824;DHT22;4448;50.904;4.694;2024-03-02T07:07:19;7.60;99.90
8824;DHT22;4448;50.904;4.694;2024-03-02T07:09:46;7.60;99.90
8824;DHT22;4448;50.904;4.694;2024-03-02T07:12:13;7.70;99.90
8824;DHT22;4448;50.904;4.694;2024-03-02T07:14:39;7.70;99.90
8824;DHT22;4448;50.904;4.694;2024-03-02T07:17:23;7.70;99.90
8824;DHT22;4448;50.904;4.694;2024-03-02T07:19:49;7.70;99.90
8824;DHT22;4448;50.904;4.694;2024-03-02T07:22:14;7.70;99.90
8824;DHT22;4448;50.904;4.694;2024-03-02T07:24:41;7.70;99.90
8824;DHT22;4448;50.904;4.694;2024-03-02T07:27:07;7.70;99.90
8824;DHT22;4448;50.904;4.694;2024-03-02T07:29:34;7.70;99.90
8824;DHT22;4448;50.904;4.694;2024-03-02T07:31:59;7.80;99.90
8824;DHT22;4448;50.904;4.694;2024-03-02T07:34:25;7.80;99.90
8824;DHT22;4448;50.904;4.694;2024-03-02T07:36:51;7.80;99.90
8824;DHT22;4448;50.904;4.694;2024-03-02T07:39:17;7.80;99.90
8824;DHT22;4448;50.904;4.694;2024-03-02T07:41:43;7.80;99.90
8824;DHT22;4448;50.904;4.694;2024-03-02T07:44:09;7.80;99.90
8824;DHT22;4448;50.904;4.694;2024-03-02T07:46:35;7.80;99.90
8824;DHT22;4448;50.904;4.694;2024-03-02T07:49:01;7.90;99.90
8824;DHT22;4448;50.904;4.694;2024-03-02T07:51:27;7.90;99.90
8824;DHT22;4448;50.904;4.694;2024-03-02T07:53:52;7.90;99.90
8824;DHT22;4448;50.904;4.694;2024-03-02T07:56:18;7.90;99.90
8824;DHT22;4448;50.904;4.694;2024-03-02T07:58:48;8.00;99.90
8824;DHT22;4448;50.904;4.694;2024-03-02T08:01:14;8.00;99.90
8824;DHT22;4448;50.904;4.694;2024-03-02T08:03:40;8.00;99.90
8824;DHT22;4448;50.904;4.694;2024-03-02T08:06:06;8.00;99.90
8824;DHT22;4448;50.904;4.694;2024-03-02T08:08:32;8.00;99.90
8824;DHT22;4448;50.904;4.694;2024-03-02T08:10:58;8.00;99.90
8824;DHT22;4448;50.904;4.694;2024-03-02T08:13:24;8.10;99.90
8824;DHT22;4448;50.904;4.694;2024-03-02T08:15:49;8.10;99.90
8824;DHT22;4448;50.904;4.694;2024-03-02T08:18:15;8.20;99.90
8824;DHT22;4448;50.904;4.694;2024-03-02T08:20:41;8.20;99.90
8824;DHT22;4448;50.904;4.694;2024-03-02T08:23:07;8.20;99.90
8824;DHT22;4448;50.904;4.694;2024-03-02T08:25:33;8.30;99.90
8824;DHT22;4448;50.904;4.694;2024-03-02T08:27:59;8.30;99.90
8824;DHT22;4448;50.904;4.694;2024-03-02T08:30:25;8.40;99.90
8824;DHT22;4448;50.904;4.694;2024-03-02T08:32:51;8.50;99.90
8824;DHT22;4448;50.904;4.694;2024-03-02T08:35:16;8.50;99.90
8824;DHT22;4448;50.904;4.694;2024-03-02T08:37:42;8.60;99.90
8824;DHT22;4448;50.904;4.694;2024-03-02T08:40:09;8.60;99.90
8824;DHT22;4448;50.904;4.694;2024-03-02T08:42:36;8.70;99.90
8824;DHT22;4448;50.904;4.694;2024-03-02T08:45:02;8.80;99.90
8824;DHT22;4448;50.904;4.694;2024-03-02T08:47:28;8.90;99.90
8824;DHT22;4448;50.904;4.694;2024-03-02T08:49:53;9.00;99.90
8824;DHT22;4448;50.904;4.694;2024-03-02T08:52:19;9.00;99.90
8824;DHT22;4448;50.904;4.694;2024-03-02T08:54:45;9.10;99.90
8824;DHT22;4448;50.904;4.694;2024-03-02T08:57:10;9.20;99.90
8824;DHT22;4448;50.904;4.694;2024-03-02T08:59:36;9.30;99.90
8824;DHT22;4448;50.904;4.694;2024-03-02T09:02:02;9.30;99.90
8824;DHT22;4448;50.904;4.694;2024-03-02T09:04:28;9.40;99.90
8824;DHT22;4448;50.904;4.694;2024-03-02T09:06:54;9.50;99.90
8824;DHT22;4448;50.904;4.694;2024-03-02T09:09:20;9.50;99.90
8824;DHT22;4448;50.904;4.694;2024-03-02T09:11:47;9.60;99.90
8824;DHT22;4448;50.904;4.694;2024-03-02T09:14:12;9.70;99.90
8824;DHT22;4448;50.904;4.694;2024-03-02T09:16:40;9.80;99.90
8824;DHT22;4448;50.904;4.694;2024-03-02T09:19:06;9.90;99.90
8824;DHT22;4448;50.904;4.694;2024-03-02T09:21:32;10.00;99.90
8824;DHT22;4448;50.904;4.694;2024-03-02T09:23:58;10.00;99.90
8824;DHT22;4448;50.904;4.694;2024-03-02T09:26:24;10.10;99.90
8824;DHT22;4448;50.904;4.694;2024-03-02T09:28:50;10.20;99.90
8824;DHT22;4448;50.904;4.694;2024-03-02T09:31:16;10.30;99.90
8824;DHT22;4448;50.904;4.694;2024-03-02T09:33:42;10.40;99.90
8824;DHT22;4448;50.904;4.694;2024-03-02T09:36:21;10.40;99.90
8824;DHT22;4448;50.904;4.694;2024-03-02T09:38:47;10.50;99.90
8824;DHT22;4448;50.904;4.694;2024-03-02T09:41:14;10.60;99.90
8824;DHT22;4448;50.904;4.694;2024-03-02T09:43:40;10.70;99.90
8824;DHT22;4448;50.904;4.694;2024-03-02T09:46:09;10.60;99.90
8824;DHT22;4448;50.904;4.694;2024-03-02T09:48:35;10.90;99.90
8824;DHT22;4448;50.904;4.694;2024-03-02T09:51:01;11.00;99.90
8824;DHT22;4448;50.904;4.694;2024-03-02T09:53:34;11.10;99.90
8824;DHT22;4448;50.904;4.694;2024-03-02T09:56:00;11.40;99.90
8824;DHT22;4448;50.904;4.694;2024-03-02T09:58:26;11.50;99.90
8824;DHT22;4448;50.904;4.694;2024-03-02T10:00:52;11.80;99.90
8824;DHT22;4448;50.904;4.694;2024-03-02T10:03:19;12.00;99.90
8824;DHT22;4448;50.904;4.694;2024-03-02T10:05:45;12.20;99.90
8824;DHT22;4448;50.904;4.694;2024-03-02T10:08:10;12.30;99.90
8824;DHT22;4448;50.904;4.694;2024-03-02T10:10:38;12.60;99.90
8824;DHT22;4448;50.904;4.694;2024-03-02T10:13:10;12.80;99.90
8824;DHT22;4448;50.904;4.694;2024-03-02T10:15:37;13.00;99.90
8824;DHT22;4448;50.904;4.694;2024-03-02T10:18:11;13.20;99.90
8824;DHT22;4448;50.904;4.694;2024-03-02T10:20:38;13.40;99.90
8824;DHT22;4448;50.904;4.694;2024-03-02T10:23:15;13.50;99.90
8824;DHT22;4448;50.904;4.694;2024-03-02T10:25:42;13.60;99.90
8824;DHT22;4448;50.904;4.694;2024-03-02T10:28:08;13.70;99.90
8824;DHT22;4448;50.904;4.694;2024-03-02T10:30:35;13.70;99.90
8824;DHT22;4448;50.904;4.694;2024-03-02T10:33:05;13.70;99.90
8824;DHT22;4448;50.904;4.694;2024-03-02T10:35:32;13.80;99.90
8824;DHT22;4448;50.904;4.694;2024-03-02T10:38:01;13.80;99.90
8824;DHT22;4448;50.904;4.694;2024-03-02T10:40:30;14.00;99.90
8824;DHT22;4448;50.904;4.694;2024-03-02T10:42:56;14.20;99.90
8824;DHT22;4448;50.904;4.694;2024-03-02T10:45:22;14.20;99.90
8824;DHT22;4448;50.904;4.694;2024-03-02T10:47:49;14.30;99.90
8824;DHT22;4448;50.904;4.694;2024-03-02T10:50:16;14.40;99.90
8824;DHT22;4448;50.904;4.694;2024-03-02T10:52:42;14.60;99.90
8824;DHT22;4448;50.904;4.694;2024-03-02T10:55:09;14.70;99.90
8824;DHT22;4448;50.904;4.694;2024-03-02T11:00:08;14.90;99.90
8824;DHT22;4448;50.904;4.694;2024-03-02T11:02:42;15.00;99.90
8824;DHT22;4448;50.904;4.694;2024-03-02T11:05:16;15.00;99.90
8824;DHT22;4448;50.904;4.694;2024-03-02T11:07:45;15.00;99.90
8824;DHT22;4448;50.904;4.694;2024-03-02T11:10:11;15.10;99.90
8824;DHT22;4448;50.904;4.694;2024-03-02T11:13:11;14.90;99.90
8824;DHT22;4448;50.904;4.694;2024-03-02T11:15:48;14.70;99.90
8824;DHT22;4448;50.904;4.694;2024-03-02T11:18:14;14.50;99.90
8824;DHT22;4448;50.904;4.694;2024-03-02T11:20:41;14.30;99.90
8824;DHT22;4448;50.904;4.694;2024-03-02T11:23:08;14.10;99.90
8824;DHT22;4448;50.904;4.694;2024-03-02T11:25:34;14.30;99.90
8824;DHT22;4448;50.904;4.694;2024-03-02T11:28:07;14.30;99.90
8824;DHT22;4448;50.904;4.694;2024-03-02T11:33:08;14.50;99.90
8824;DHT22;4448;50.904;4.694;2024-03-02T11:35:42;14.50;99.90
8824;DHT22;4448;50.904;4.694;2024-03-02T11:38:09;14.60;99.90
8824;DHT22;4448;50.904;4.694;2024-03-02T11:40:35;14.80;99.90
8824;DHT22;4448;50.904;4.694;2024-03-02T11:43:01;14.90;99.90
8824;DHT22;4448;50.904;4.694;2024-03-02T11:45:28;15.00;99.90
8824;DHT22;4448;50.904;4.694;2024-03-02T11:47:55;15.20;99.90
8824;DHT22;4448;50.904;4.694;2024-03-02T11:50:33;15.20;99.90
8824;DHT22;4448;50.904;4.694;2024-03-02T11:53:00;15.30;99.90
8824;DHT22;4448;50.904;4.694;2024-03-02T11:55:26;15.40;99.90
8824;DHT22;4448;50.904;4.694;2024-03-02T11:58:11;15.60;99.90
8824;DHT22;4448;50.904;4.694;2024-03-02T12:00:37;15.50;99.90
8824;DHT22;4448;50.904;4.694;2024-03-02T12:03:08;15.50;99.90
8824;DHT22;4448;50.904;4.694;2024-03-02T12:05:35;15.60;99.90
8824;DHT22;4448;50.904;4.694;2024-03-02T12:08:06;15.60;99.90
8824;DHT22;4448;50.904;4.694;2024-03-02T12:10:33;15.50;99.90
8824;DHT22;4448;50.904;4.694;2024-03-02T12:13:04;15.50;99.90
8824;DHT22;4448;50.904;4.694;2024-03-02T12:15:31;15.50;99.90
8824;DHT22;4448;50.904;4.694;2024-03-02T12:17:58;15.30;99.90
8824;DHT22;4448;50.904;4.694;2024-03-02T12:20:26;15.20;99.90
8824;DHT22;4448;50.904;4.694;2024-03-02T12:22:53;15.10;99.90
8824;DHT22;4448;50.904;4.694;2024-03-02T12:25:23;14.90;99.90
8824;DHT22;4448;50.904;4.694;2024-03-02T12:27:55;14.80;99.90
8824;DHT22;4448;50.904;4.694;2024-03-02T12:30:22;14.70;99.90
8824;DHT22;4448;50.904;4.694;2024-03-02T12:32:49;14.50;99.90
8824;DHT22;4448;50.904;4.694;2024-03-02T12:35:15;14.40;99.90
8824;DHT22;4448;50.904;4.694;2024-03-02T12:37:48;14.40;99.90
8824;DHT22;4448;50.904;4.694;2024-03-02T12:40:15;14.40;99.90
8824;DHT22;4448;50.904;4.694;2024-03-02T12:42:47;14.30;99.90
8824;DHT22;4448;50.904;4.694;2024-03-02T12:45:15;14.30;99.90
8824;DHT22;4448;50.904;4.694;2024-03-02T12:47:42;14.20;99.90
8824;DHT22;4448;50.904;4.694;2024-03-02T12:50:09;14.10;99.90
8824;DHT22;4448;50.904;4.694;2024-03-02T12:52:35;14.00;99.90
8824;DHT22;4448;50.904;4.694;2024-03-02T12:55:04;13.90;99.90
8824;DHT22;4448;50.904;4.694;2024-03-02T12:57:31;13.80;99.90
8824;DHT22;4448;50.904;4.694;2024-03-02T13:00:03;13.70;99.90
8824;DHT22;4448;50.904;4.694;2024-03-02T13:02:35;13.60;99.90
8824;DHT22;4448;50.904;4.694;2024-03-02T13:05:01;13.60;99.90
8824;DHT22;4448;50.904;4.694;2024-03-02T13:07:27;13.60;99.90
8824;DHT22;4448;50.904;4.694;2024-03-02T13:09:55;13.60;99.90
8824;DHT22;4448;50.904;4.694;2024-03-02T13:12:23;13.60;99.90
8824;DHT22;4448;50.904;4.694;2024-03-02T13:14:53;13.60;99.90
8824;DHT22;4448;50.904;4.694;2024-03-02T13:17:19;13.70;99.90
8824;DHT22;4448;50.904;4.694;2024-03-02T13:19:59;13.70;99.90
8824;DHT22;4448;50.904;4.694;2024-03-02T13:22:25;13.70;99.90
8824;DHT22;4448;50.904;4.694;2024-03-02T13:24:52;13.80;99.90
8824;DHT22;4448;50.904;4.694;2024-03-02T13:27:20;13.80;99.90
8824;DHT22;4448;50.904;4.694;2024-03-02T13:29:49;13.80;99.90
8824;DHT22;4448;50.904;4.694;2024-03-02T13:32:15;13.90;99.90
8824;DHT22;4448;50.904;4.694;2024-03-02T13:34:42;13.90;99.90
8824;DHT22;4448;50.904;4.694;2024-03-02T13:37:08;14.00;99.90
8824;DHT22;4448;50.904;4.694;2024-03-02T13:39:34;14.00;99.90
8824;DHT22;4448;50.904;4.694;2024-03-02T13:42:14;14.10;99.90
8824;DHT22;4448;50.904;4.694;2024-03-02T13:44:44;14.10;99.90
8824;DHT22;4448;50.904;4.694;2024-03-02T13:47:15;14.10;99.90
8824;DHT22;4448;50.904;4.694;2024-03-02T13:49:41;14.10;99.90
8824;DHT22;4448;50.904;4.694;2024-03-02T13:52:11;14.00;99.90
8824;DHT22;4448;50.904;4.694;2024-03-02T13:54:45;14.00;99.90
8824;DHT22;4448;50.904;4.694;2024-03-02T13:57:11;14.00;99.90
8824;DHT22;4448;50.904;4.694;2024-03-02T13:59:38;14.00;99.90
8824;DHT22;4448;50.904;4.694;2024-03-02T14:02:07;14.00;99.90
8824;DHT22;4448;50.904;4.694;2024-03-02T14:04:34;13.90;99.90
8824;DHT22;4448;50.904;4.694;2024-03-02T14:07:01;13.90;99.90
8824;DHT22;4448;50.904;4.694;2024-03-02T14:09:27;13.80;99.90
8824;DHT22;4448;50.904;4.694;2024-03-02T14:11:53;13.80;99.90
8824;DHT22;4448;50.904;4.694;2024-03-02T14:14:19;13.70;99.90
8824;DHT22;4448;50.904;4.694;2024-03-02T14:16:45;13.70;99.90
8824;DHT22;4448;50.904;4.694;2024-03-02T14:19:12;13.60;99.90
8824;DHT22;4448;50.904;4.694;2024-03-02T14:21:38;13.60;99.90
8824;DHT22;4448;50.904;4.694;2024-03-02T14:24:04;13.60;99.90
8824;DHT22;4448;50.904;4.694;2024-03-02T14:26:32;13.50;99.90
8824;DHT22;4448;50.904;4.694;2024-03-02T14:28:59;13.50;99.90
8824;DHT22;4448;50.904;4.694;2024-03-02T14:31:27;13.50;99.90
8824;DHT22;4448;50.904;4.694;2024-03-02T14:33:53;13.50;99.90
8824;DHT22;4448;50.904;4.694;2024-03-02T14:36:19;13.50;99.90
8824;DHT22;4448;50.904;4.694;2024-03-02T14:38:45;13.50;99.90
8824;DHT22;4448;50.904;4.694;2024-03-02T14:41:12;13.40;99.90
8824;DHT22;4448;50.904;4.694;2024-03-02T14:43:38;13.30;99.90
8824;DHT22;4448;50.904;4.694;2024-03-02T14:46:04;13.30;99.90
8824;DHT22;4448;50.904;4.694;2024-03-02T14:48:30;13.30;99.90
8824;DHT22;4448;50.904;4.694;2024-03-02T14:50:57;13.30;99.90
8824;DHT22;4448;50.904;4.694;2024-03-02T14:53:23;13.20;99.90
8824;DHT22;4448;50.904;4.694;2024-03-02T14:55:48;13.30;99.90
8824;DHT22;4448;50.904;4.694;2024-03-02T14:58:15;13.20;99.90
8824;DHT22;4448;50.904;4.694;2024-03-02T15:00:41;13.20;99.90
8824;DHT22;4448;50.904;4.694;2024-03-02T15:03:07;13.20;99.90
8824;DHT22;4448;50.904;4.694;2024-03-02T15:05:35;13.20;99.90
8824;DHT22;4448;50.904;4.694;2024-03-02T15:08:01;13.20;99.90
8824;DHT22;4448;50.904;4.694;2024-03-02T15:10:30;13.10;99.90
8824;DHT22;4448;50.904;4.694;2024-03-02T15:12:56;13.10;99.90
8824;DHT22;4448;50.904;4.694;2024-03-02T15:15:21;13.00;99.90
8824;DHT22;4448;50.904;4.694;2024-03-02T15:17:47;13.00;99.90
8824;DHT22;4448;50.904;4.694;2024-03-02T15:20:13;13.10;99.90
8824;DHT22;4448;50.904;4.694;2024-03-02T15:22:38;13.00;99.90
8824;DHT22;4448;50.904;4.694;2024-03-02T15:25:04;12.90;99.90
8824;DHT22;4448;50.904;4.694;2024-03-02T15:27:30;12.90;99.90
8824;DHT22;4448;50.904;4.694;2024-03-02T15:29:56;12.90;99.90
8824;DHT22;4448;50.904;4.694;2024-03-02T15:32:23;12.80;99.90
8824;DHT22;4448;50.904;4.694;2024-03-02T15:34:49;12.90;99.90
8824;DHT22;4448;50.904;4.694;2024-03-02T15:37:15;12.80;99.90
8824;DHT22;4448;50.904;4.694;2024-03-02T15:39:41;12.80;99.90
8824;DHT22;4448;50.904;4.694;2024-03-02T15:42:07;12.80;99.90
8824;DHT22;4448;50.904;4.694;2024-03-02T15:44:32;12.80;99.90
8824;DHT22;4448;50.904;4.694;2024-03-02T15:46:58;12.80;99.90
8824;DHT22;4448;50.904;4.694;2024-03-02T15:49:24;12.80;99.90
8824;DHT22;4448;50.904;4.694;2024-03-02T15:51:50;12.80;99.90
8824;DHT22;4448;50.904;4.694;2024-03-02T15:54:16;12.80;99.90
8824;DHT22;4448;50.904;4.694;2024-03-02T15:56:42;12.70;99.90
8824;DHT22;4448;50.904;4.694;2024-03-02T15:59:07;12.80;99.90
8824;DHT22;4448;50.904;4.694;2024-03-02T16:01:34;12.70;99.90
8824;DHT22;4448;50.904;4.694;2024-03-02T16:04:00;12.70;99.90
8824;DHT22;4448;50.904;4.694;2024-03-02T16:06:26;12.70;99.90
8824;DHT22;4448;50.904;4.694;2024-03-02T16:08:51;12.70;99.90
8824;DHT22;4448;50.904;4.694;2024-03-02T16:11:18;12.70;99.90
8824;DHT22;4448;50.904;4.694;2024-03-02T16:13:44;12.60;99.90
8824;DHT22;4448;50.904;4.694;2024-03-02T16:16:11;12.60;99.90
8824;DHT22;4448;50.904;4.694;2024-03-02T16:18:37;12.50;99.90
8824;DHT22;4448;50.904;4.694;2024-03-02T16:21:03;12.40;99.90
8824;DHT22;4448;50.904;4.694;2024-03-02T16:23:29;12.30;99.90
8824;DHT22;4448;50.904;4.694;2024-03-02T16:25:55;12.20;99.90
8824;DHT22;4448;50.904;4.694;2024-03-02T16:28:21;12.20;99.90
8824;DHT22;4448;50.904;4.694;2024-03-02T16:30:47;12.20;99.90
8824;DHT22;4448;50.904;4.694;2024-03-02T16:33:13;12.20;99.90
8824;DHT22;4448;50.904;4.694;2024-03-02T16:35:39;12.10;99.90
8824;DHT22;4448;50.904;4.694;2024-03-02T16:38:05;12.10;99.90
8824;DHT22;4448;50.904;4.694;2024-03-02T16:40:31;12.00;99.90
8824;DHT22;4448;50.904;4.694;2024-03-02T16:42:57;12.00;99.90
8824;DHT22;4448;50.904;4.694;2024-03-02T16:45:23;12.00;99.90
8824;DHT22;4448;50.904;4.694;2024-03-02T16:47:49;12.00;99.90
8824;DHT22;4448;50.904;4.694;2024-03-02T16:50:15;11.90;99.90
8824;DHT22;4448;50.904;4.694;2024-03-02T16:52:42;11.90;99.90
8824;DHT22;4448;50.904;4.694;2024-03-02T16:55:08;11.90;99.90
8824;DHT22;4448;50.904;4.694;2024-03-02T16:57:34;11.90;99.90
8824;DHT22;4448;50.904;4.694;2024-03-02T17:00:00;11.80;99.90
8824;DHT22;4448;50.904;4.694;2024-03-02T17:02:26;11.90;99.90
8824;DHT22;4448;50.904;4.694;2024-03-02T17:04:52;11.80;99.90
8824;DHT22;4448;50.904;4.694;2024-03-02T17:07:18;11.80;99.90
8824;DHT22;4448;50.904;4.694;2024-03-02T17:09:44;11.80;99.90